Time;durP1;ratioP1;P1;durP2;ratioP2;P2;SDS_P1;SDS_P2;PMS_P1;PMS_P2;Temp;Humidity;BMP_temperature;BMP_pressure;BME280_temperature;BME280_humidity;BME280_pressure;Samples;Min_cycle;Max_cycle;Signal;HPM_P1;HPM_P2
2021/12/13 00:01:55;;;;;;;3.17;1.70;;;;;;;;;;5063194;28;20064;-78
2021/12/13 00:04:22;;;;;;;2.92;1.50;;;;;;;;;;5062245;28;20056;-78
2021/12/13 00:06:51;;;;;;;3.25;1.77;;;;;;;;;;5043222;28;20840;-79
2021/12/13 00:09:21;;;;;;;2.15;1.30;;;;;;;;;;5060865;28;20068;-79
2021/12/13 00:11:49;;;;;;;3.78;1.65;;;;;;;;;;5064684;28;20060;-79
2021/12/13 00:14:18;;;;;;;2.88;1.55;;;;;;;;;;5066934;28;20044;-79
2021/12/13 00:16:57;;;;;;;3.05;1.48;;;;;;;;;;5064255;28;20060;-78
2021/12/13 00:19:25;;;;;;;2.90;1.55;;;;;;;;;;5063801;28;20060;-78
2021/12/13 00:21:59;;;;;;;2.50;1.48;;;;;;;;;;5066773;28;20546;-77
2021/12/13 00:24:27;;;;;;;2.35;1.23;;;;;;;;;;5071462;28;20611;-78
2021/12/13 00:27:03;;;;;;;3.70;1.80;;;;;;;;;;5070077;28;21397;-78
2021/12/13 00:29:41;;;;;;;3.92;1.67;;;;;;;;;;5072250;28;20074;-78
2021/12/13 00:32:15;;;;;;;3.28;1.70;;;;;;;;;;5070259;28;20064;-80
2021/12/13 00:34:48;;;;;;;2.97;1.30;;;;;;;;;;5045731;28;20076;-78
2021/12/13 00:37:32;;;;;;;2.53;1.42;;;;;;;;;;5064168;28;20070;-77
2021/12/13 00:40:19;;;;;;;2.63;1.50;;;;;;;;;;5067754;28;21383;-77
2021/12/13 00:43:01;;;;;;;2.90;1.60;;;;;;;;;;5068045;28;20079;-78
2021/12/13 00:45:29;;;;;;;2.70;1.50;;;;;;;;;;5062790;28;20552;-77
2021/12/13 00:47:58;;;;;;;3.05;1.67;;;;;;;;;;5062721;28;21198;-77
2021/12/13 00:50:26;;;;;;;3.33;1.55;;;;;;;;;;5064236;28;20044;-78
2021/12/13 00:52:54;;;;;;;2.28;1.42;;;;;;;;;;5064801;28;20181;-78
2021/12/13 00:55:25;;;;;;;2.95;1.63;;;;;;;;;;5065208;28;20056;-78
2021/12/13 00:57:52;;;;;;;2.85;1.60;;;;;;;;;;5063909;28;20029;-80
2021/12/13 01:00:29;;;;;;;3.03;1.55;;;;;;;;;;5061340;28;20090;-80
2021/12/13 01:03:00;;;;;;;2.47;1.40;;;;;;;;;;5067936;28;20068;-78
2021/12/13 01:05:32;;;;;;;2.28;1.30;;;;;;;;;;5050071;28;20109;-78
2021/12/13 01:07:59;;;;;;;2.95;1.30;;;;;;;;;;5063639;28;22572;-79
2021/12/13 01:10:44;;;;;;;2.60;1.60;;;;;;;;;;5064688;28;20060;-79
2021/12/13 01:13:13;;;;;;;2.70;1.38;;;;;;;;;;5064261;28;21158;-79
2021/12/13 01:15:55;;;;;;;7.13;1.55;;;;;;;;;;5065380;28;20060;-79
2021/12/13 01:18:35;;;;;;;3.30;1.40;;;;;;;;;;5066403;28;20163;-79
2021/12/13 01:21:10;;;;;;;2.20;1.30;;;;;;;;;;5064169;28;20060;-80
2021/12/13 01:23:50;;;;;;;2.58;1.52;;;;;;;;;;5068391;28;20075;-78
2021/12/13 01:28:52;;;;;;;3.13;1.60;;;;;;;;;;5066768;28;20032;-79
2021/12/13 01:31:25;;;;;;;2.55;1.25;;;;;;;;;;5070702;28;20666;-79
2021/12/13 01:33:53;;;;;;;3.35;1.48;;;;;;;;;;5067711;28;20064;-79
2021/12/13 01:36:27;;;;;;;3.17;1.50;;;;;;;;;;5079865;28;20044;-79
2021/12/13 01:39:13;;;;;;;2.55;1.40;;;;;;;;;;5063193;28;20041;-80
2021/12/13 01:41:42;;;;;;;3.03;1.42;;;;;;;;;;5074067;28;20559;-80
2021/12/13 01:44:13;;;;;;;3.65;1.45;;;;;;;;;;5071386;28;20459;-79
2021/12/13 01:46:41;;;;;;;3.20;1.70;;;;;;;;;;5066728;28;20048;-79
2021/12/13 01:49:08;;;;;;;2.38;1.30;;;;;;;;;;5066131;28;20133;-78
2021/12/13 01:51:35;;;;;;;2.33;1.33;;;;;;;;;;5068948;28;20111;-78
2021/12/13 01:54:04;;;;;;;2.42;1.60;;;;;;;;;;5066969;28;20078;-78
2021/12/13 01:56:44;;;;;;;2.70;1.50;;;;;;;;;;5049348;28;20059;-77
2021/12/13 01:59:28;;;;;;;3.13;1.35;;;;;;;;;;5061691;28;20064;-79
2021/12/13 02:01:59;;;;;;;2.50;1.45;;;;;;;;;;5045590;28;22551;-78
2021/12/13 02:04:26;;;;;;;2.90;1.67;;;;;;;;;;5044716;28;20056;-77
2021/12/13 02:07:00;;;;;;;3.40;1.40;;;;;;;;;;5065986;28;20067;-79
2021/12/13 02:09:28;;;;;;;2.88;1.50;;;;;;;;;;5061840;28;20056;-79
2021/12/13 02:11:56;;;;;;;2.45;1.38;;;;;;;;;;5065514;28;22332;-78
2021/12/13 02:14:28;;;;;;;3.35;1.58;;;;;;;;;;5069369;28;20068;-78
2021/12/13 02:19:44;;;;;;;2.13;1.20;;;;;;;;;;5043787;28;20056;-79
2021/12/13 02:22:25;;;;;;;2.60;1.63;;;;;;;;;;5042524;28;20077;-79
2021/12/13 02:24:52;;;;;;;2.55;1.30;;;;;;;;;;5044950;28;20057;-79
2021/12/13 02:27:21;;;;;;;2.67;1.40;;;;;;;;;;5044000;28;20562;-79
2021/12/13 02:29:48;;;;;;;2.85;1.33;;;;;;;;;;5042023;28;20500;-78
2021/12/13 02:32:15;;;;;;;2.40;1.33;;;;;;;;;;5017277;28;20064;-78
2021/12/13 02:34:42;;;;;;;3.15;1.77;;;;;;;;;;5040252;28;20069;-79
2021/12/13 02:37:10;;;;;;;1.85;1.15;;;;;;;;;;5056872;28;20064;-80
2021/12/13 02:39:44;;;;;;;2.90;1.40;;;;;;;;;;5041025;28;20135;-80
2021/12/13 02:42:12;;;;;;;3.05;1.50;;;;;;;;;;5044630;28;20084;-81
2021/12/13 02:44:45;;;;;;;2.40;1.27;;;;;;;;;;5056882;28;20060;-80
2021/12/13 02:47:15;;;;;;;2.65;1.42;;;;;;;;;;5042712;28;20078;-79
2021/12/13 02:49:42;;;;;;;2.92;1.33;;;;;;;;;;5039808;28;20775;-79
2021/12/13 02:52:10;;;;;;;2.50;1.27;;;;;;;;;;5046387;28;20110;-79
2021/12/13 02:54:38;;;;;;;2.33;1.33;;;;;;;;;;5047075;28;20103;-80
2021/12/13 02:57:07;;;;;;;3.75;1.38;;;;;;;;;;5047712;28;20037;-78
2021/12/13 02:59:35;;;;;;;2.17;1.30;;;;;;;;;;5043386;28;20076;-79
2021/12/13 03:02:04;;;;;;;2.15;1.17;;;;;;;;;;5054483;28;20559;-78
2021/12/13 03:04:31;;;;;;;2.60;1.60;;;;;;;;;;5052157;28;20068;-78
2021/12/13 03:07:01;;;;;;;2.55;1.33;;;;;;;;;;5048906;28;20115;-79
2021/12/13 03:09:29;;;;;;;2.55;1.38;;;;;;;;;;5045927;28;20076;-79
2021/12/13 03:11:57;;;;;;;2.90;1.52;;;;;;;;;;5044894;28;20079;-78
2021/12/13 03:14:25;;;;;;;3.25;1.30;;;;;;;;;;5048820;28;20067;-79
2021/12/13 03:17:01;;;;;;;2.30;1.40;;;;;;;;;;5047589;28;20057;-79
2021/12/13 03:19:34;;;;;;;1.73;1.08;;;;;;;;;;5048308;28;20076;-79
2021/12/13 03:22:01;;;;;;;2.38;1.20;;;;;;;;;;5049021;28;21411;-79
2021/12/13 03:24:36;;;;;;;2.35;1.17;;;;;;;;;;5060475;28;20047;-78
2021/12/13 03:27:02;;;;;;;2.67;1.48;;;;;;;;;;5065216;28;22194;-79
2021/12/13 03:29:39;;;;;;;3.17;1.42;;;;;;;;;;5066444;28;20048;-79
2021/12/13 03:32:08;;;;;;;2.10;1.10;;;;;;;;;;5081085;28;21183;-78
2021/12/13 03:34:35;;;;;;;1.90;1.20;;;;;;;;;;5091129;28;20071;-80
2021/12/13 03:37:09;;;;;;;3.33;1.60;;;;;;;;;;5086273;28;20499;-78
2021/12/13 03:39:39;;;;;;;2.20;1.30;;;;;;;;;;5053044;28;20060;-78
2021/12/13 03:42:08;;;;;;;2.40;1.38;;;;;;;;;;5089104;28;20037;-78
2021/12/13 03:44:37;;;;;;;2.30;1.30;;;;;;;;;;5091082;28;20033;-78
2021/12/13 03:47:11;;;;;;;2.10;1.30;;;;;;;;;;5092984;28;20043;-79
2021/12/13 03:49:39;;;;;;;2.95;1.25;;;;;;;;;;5094183;28;20040;-79
2021/12/13 03:52:07;;;;;;;2.65;1.30;;;;;;;;;;5086971;28;20045;-78
2021/12/13 03:54:37;;;;;;;2.15;1.30;;;;;;;;;;5073854;28;20056;-79
2021/12/13 03:57:04;;;;;;;2.40;1.20;;;;;;;;;;5079287;28;20060;-78
2021/12/13 03:59:34;;;;;;;2.63;1.20;;;;;;;;;;5071319;28;20033;-77
2021/12/13 04:02:02;;;;;;;2.35;1.10;;;;;;;;;;5073422;28;20060;-80
2021/12/13 04:04:34;;;;;;;2.08;1.20;;;;;;;;;;5069678;28;20121;-79
2021/12/13 04:07:00;;;;;;;;;;;;;;;;;;5068561;28;21415;-79
2021/12/13 04:09:28;;;;;;;2.00;1.00;;;;;;;;;;5074562;28;19958;-78
2021/12/13 04:11:57;;;;;;;2.35;1.15;;;;;;;;;;5072367;28;20052;-78
2021/12/13 04:14:29;;;;;;;2.08;1.33;;;;;;;;;;5071134;28;20063;-77
2021/12/13 04:17:09;;;;;;;2.47;1.48;;;;;;;;;;5068311;28;21310;-77
2021/12/13 04:19:44;;;;;;;2.00;1.13;;;;;;;;;;5066479;28;20118;-78
2021/12/13 04:22:11;;;;;;;2.65;1.35;;;;;;;;;;5065035;28;20086;-78
2021/12/13 04:24:43;;;;;;;2.50;1.30;;;;;;;;;;5061418;28;20064;-78
2021/12/13 04:27:30;;;;;;;2.00;1.10;;;;;;;;;;5063670;28;20037;-78
2021/12/13 04:29:59;;;;;;;2.75;1.35;;;;;;;;;;5038932;28;21208;-79
2021/12/13 04:32:31;;;;;;;2.40;1.30;;;;;;;;;;5039578;28;20152;-79
2021/12/13 04:35:03;;;;;;;2.17;1.17;;;;;;;;;;5040707;28;20987;-79
2021/12/13 04:37:33;;;;;;;2.35;1.27;;;;;;;;;;5041451;28;20052;-79
2021/12/13 04:40:01;;;;;;;2.50;1.17;;;;;;;;;;5038418;28;20044;-78
2021/12/13 04:42:29;;;;;;;2.40;1.42;;;;;;;;;;5039860;28;20564;-79
2021/12/13 04:45:05;;;;;;;2.80;1.35;;;;;;;;;;5039281;28;20040;-79
2021/12/13 04:47:37;;;;;;;3.10;1.30;;;;;;;;;;5037925;28;20063;-81
2021/12/13 04:50:10;;;;;;;2.33;1.10;;;;;;;;;;5040728;28;20064;-78
2021/12/13 04:52:37;;;;;;;2.08;1.10;;;;;;;;;;5027154;28;20145;-78
2021/12/13 04:55:07;;;;;;;2.08;1.08;;;;;;;;;;5045789;28;20072;-78
2021/12/13 04:57:33;;;;;;;2.08;1.02;;;;;;;;;;5038174;28;20118;-78
2021/12/13 05:00:01;;;;;;;2.45;1.30;;;;;;;;;;5042049;28;20118;-79
2021/12/13 05:02:28;;;;;;;2.88;1.45;;;;;;;;;;5043528;28;20084;-78
2021/12/13 05:05:03;;;;;;;2.95;1.67;;;;;;;;;;5043342;28;20436;-78
2021/12/13 05:07:31;;;;;;;2.47;1.30;;;;;;;;;;5042953;28;20065;-78
2021/12/13 05:09:58;;;;;;;2.75;1.33;;;;;;;;;;5041247;28;20463;-78
2021/12/13 05:12:28;;;;;;;2.40;1.27;;;;;;;;;;5041615;28;20809;-77
2021/12/13 05:14:57;;;;;;;2.30;1.42;;;;;;;;;;5042802;28;20639;-78
2021/12/13 05:17:26;;;;;;;3.80;1.40;;;;;;;;;;5045125;28;20065;-78
2021/12/13 05:19:55;;;;;;;3.03;1.40;;;;;;;;;;5039714;28;20551;-77
2021/12/13 05:22:22;;;;;;;2.35;1.27;;;;;;;;;;5044804;28;20570;-77
2021/12/13 05:24:54;;;;;;;2.58;1.33;;;;;;;;;;5043223;28;20060;-79
2021/12/13 05:27:31;;;;;;;2.97;1.50;;;;;;;;;;5040407;28;20057;-77
2021/12/13 05:30:10;;;;;;;3.35;1.77;;;;;;;;;;5040391;28;20067;-78
2021/12/13 05:32:39;;;;;;;3.45;1.48;;;;;;;;;;5039870;28;20577;-77
2021/12/13 05:35:21;;;;;;;3.78;1.58;;;;;;;;;;5039332;28;20080;-79
2021/12/13 05:37:50;;;;;;;3.53;1.92;;;;;;;;;;5041819;28;20183;-78
2021/12/13 05:40:20;;;;;;;2.45;1.40;;;;;;;;;;5044949;28;20048;-78
2021/12/13 05:42:48;;;;;;;3.03;1.60;;;;;;;;;;5042835;28;20099;-78
2021/12/13 05:45:21;;;;;;;3.38;1.33;;;;;;;;;;5042434;28;20065;-79
2021/12/13 05:48:14;;;;;;;3.00;1.58;;;;;;;;;;5045620;28;20053;-77
2021/12/13 05:50:46;;;;;;;3.80;1.80;;;;;;;;;;5042104;28;20087;-78
2021/12/13 05:53:15;;;;;;;3.20;1.67;;;;;;;;;;5041909;28;20432;-78
2021/12/13 05:56:00;;;;;;;3.10;1.38;;;;;;;;;;5046772;28;20071;-79
2021/12/13 05:58:28;;;;;;;3.33;1.90;;;;;;;;;;5049136;28;20091;-78
2021/12/13 06:00:57;;;;;;;2.75;1.50;;;;;;;;;;5041943;28;20059;-78
2021/12/13 06:03:34;;;;;;;3.00;1.65;;;;;;;;;;5044557;28;20041;-78
2021/12/13 06:06:10;;;;;;;3.42;1.88;;;;;;;;;;5042526;28;21785;-78
2021/12/13 06:08:44;;;;;;;3.92;1.50;;;;;;;;;;5042705;28;20114;-81
2021/12/13 06:11:13;;;;;;;3.50;1.92;;;;;;;;;;5045214;28;20041;-79
2021/12/13 06:13:42;;;;;;;2.85;1.38;;;;;;;;;;5044458;28;20065;-78
2021/12/13 06:16:13;;;;;;;2.45;1.52;;;;;;;;;;5044481;28;20073;-78
2021/12/13 06:18:44;;;;;;;3.33;1.77;;;;;;;;;;5043217;28;20095;-78
2021/12/13 06:21:22;;;;;;;3.40;1.67;;;;;;;;;;5047239;28;20048;-79
2021/12/13 06:23:49;;;;;;;2.75;1.50;;;;;;;;;;5043224;28;20532;-78
2021/12/13 06:26:15;;;;;;;3.22;1.58;;;;;;;;;;5044567;28;20112;-78
2021/12/13 06:28:44;;;;;;;2.75;1.30;;;;;;;;;;5044001;28;20071;-78
2021/12/13 06:31:15;;;;;;;3.45;1.60;;;;;;;;;;5043925;28;20083;-78
2021/12/13 06:33:50;;;;;;;3.05;1.85;;;;;;;;;;5040972;28;20091;-77
2021/12/13 06:36:28;;;;;;;6.13;1.80;;;;;;;;;;5046453;28;20073;-77
2021/12/13 06:38:57;;;;;;;2.05;1.15;;;;;;;;;;5043831;28;20110;-79
2021/12/13 06:41:27;;;;;;;3.78;1.55;;;;;;;;;;5045121;28;20071;-78
2021/12/13 06:43:58;;;;;;;2.60;1.48;;;;;;;;;;5045623;28;20855;-79
2021/12/13 06:46:24;;;;;;;2.75;1.42;;;;;;;;;;5046468;28;20757;-78
2021/12/13 06:48:54;;;;;;;3.30;1.60;;;;;;;;;;5043403;28;20071;-77
2021/12/13 06:51:36;;;;;;;3.15;1.40;;;;;;;;;;5043284;28;20056;-77
2021/12/13 06:54:05;;;;;;;2.33;1.30;;;;;;;;;;5045605;28;20068;-77
2021/12/13 06:56:32;;;;;;;3.17;1.40;;;;;;;;;;5042913;28;20122;-77
2021/12/13 06:59:00;;;;;;;3.35;1.42;;;;;;;;;;5046483;28;20065;-78
2021/12/13 07:01:27;;;;;;;3.22;1.50;;;;;;;;;;5043365;28;20064;-78
2021/12/13 07:03:56;;;;;;;2.78;1.63;;;;;;;;;;5043285;28;20068;-79
2021/12/13 07:06:23;;;;;;;3.72;1.85;;;;;;;;;;5043004;28;20628;-78
2021/12/13 07:09:01;;;;;;;2.78;1.58;;;;;;;;;;5046691;28;20056;-78
2021/12/13 07:11:37;;;;;;;4.00;1.65;;;;;;;;;;5043587;28;20083;-77
2021/12/13 07:14:06;;;;;;;2.95;1.58;;;;;;;;;;5044211;28;20111;-77
2021/12/13 07:16:34;;;;;;;3.50;1.40;;;;;;;;;;5042855;28;20120;-78
2021/12/13 07:19:11;;;;;;;3.33;1.70;;;;;;;;;;5044841;28;20048;-77
2021/12/13 07:22:03;;;;;;;3.35;1.55;;;;;;;;;;5045104;28;20064;-77
2021/12/13 07:24:42;;;;;;;2.90;1.60;;;;;;;;;;5042096;28;20076;-77
2021/12/13 07:27:23;;;;;;;2.30;1.50;;;;;;;;;;5047151;28;21391;-78
2021/12/13 07:29:49;;;;;;;2.15;1.30;;;;;;;;;;5066450;28;20141;-77
2021/12/13 07:32:36;;;;;;;3.40;1.75;;;;;;;;;;5065942;28;20130;-80
2021/12/13 07:35:10;;;;;;;2.67;1.60;;;;;;;;;;5063808;28;20304;-78
2021/12/13 07:37:39;;;;;;;2.75;1.60;;;;;;;;;;5067255;28;20064;-79
2021/12/13 07:40:18;;;;;;;3.22;1.70;;;;;;;;;;5067776;28;20631;-78
2021/12/13 07:43:10;;;;;;;3.10;1.60;;;;;;;;;;5065412;28;20518;-79
2021/12/13 07:45:43;;;;;;;3.65;1.63;;;;;;;;;;5047034;28;20500;-78
2021/12/13 07:48:11;;;;;;;2.80;1.60;;;;;;;;;;5064784;28;20110;-78
2021/12/13 07:50:38;;;;;;;3.85;1.75;;;;;;;;;;5066097;28;20056;-78
2021/12/13 07:53:06;;;;;;;4.00;1.73;;;;;;;;;;5067797;28;20171;-77
2021/12/13 07:55:32;;;;;;;3.60;1.58;;;;;;;;;;5068936;28;20134;-77
2021/12/13 07:58:02;;;;;;;3.42;1.65;;;;;;;;;;5069284;28;20137;-78
2021/12/13 08:00:34;;;;;;;2.60;1.48;;;;;;;;;;5064694;28;20086;-79
2021/12/13 08:03:03;;;;;;;3.40;1.55;;;;;;;;;;5049417;28;20468;-79
2021/12/13 08:05:36;;;;;;;3.53;1.52;;;;;;;;;;5067885;28;20055;-78
2021/12/13 08:08:04;;;;;;;2.47;1.25;;;;;;;;;;5065905;28;21197;-78
2021/12/13 08:10:33;;;;;;;3.00;1.50;;;;;;;;;;5063799;28;20173;-79
2021/12/13 08:13:03;;;;;;;3.22;1.63;;;;;;;;;;5066508;28;20561;-79
2021/12/13 08:15:35;;;;;;;2.85;1.48;;;;;;;;;;5070371;28;20092;-78
2021/12/13 08:18:20;;;;;;;2.60;1.40;;;;;;;;;;5066870;28;21310;-78
2021/12/13 08:20:50;;;;;;;2.95;1.70;;;;;;;;;;5065315;28;20075;-78
2021/12/13 08:23:39;;;;;;;3.20;1.52;;;;;;;;;;5057073;28;20049;-77
2021/12/13 08:26:07;;;;;;;3.75;1.80;;;;;;;;;;5056960;28;20129;-78
2021/12/13 08:28:34;;;;;;;2.38;1.38;;;;;;;;;;5043970;28;20084;-77
2021/12/13 08:31:01;;;;;;;4.07;1.52;;;;;;;;;;5039254;28;20110;-79
2021/12/13 08:33:36;;;;;;;3.83;1.48;;;;;;;;;;5047976;28;20068;-78
2021/12/13 08:36:12;;;;;;;3.65;1.85;;;;;;;;;;5046483;28;20316;-78
2021/12/13 08:38:54;;;;;;;2.92;1.60;;;;;;;;;;5047551;28;20645;-79
2021/12/13 08:41:20;;;;;;;;;;;;;;;;;;5051612;28;21569;-77
2021/12/13 08:43:58;;;;;;;2.90;1.52;;;;;;;;;;5061095;28;20017;-79
2021/12/13 08:46:30;;;;;;;3.95;1.70;;;;;;;;;;5046312;28;20640;-79
2021/12/13 08:48:57;;;;;;;3.80;1.73;;;;;;;;;;5037745;28;21183;-78
2021/12/13 08:51:27;;;;;;;3.17;1.67;;;;;;;;;;5044923;28;20068;-78
2021/12/13 08:54:05;;;;;;;3.95;1.70;;;;;;;;;;5045975;28;20074;-78
2021/12/13 08:56:33;;;;;;;3.22;1.70;;;;;;;;;;5047375;28;20053;-77
2021/12/13 08:59:09;;;;;;;3.40;1.33;;;;;;;;;;5045786;28;20053;-78
2021/12/13 09:01:43;;;;;;;3.08;1.30;;;;;;;;;;5045453;28;20072;-79
2021/12/13 09:04:10;;;;;;;3.22;1.65;;;;;;;;;;5046560;28;20095;-78
2021/12/13 09:06:36;;;;;;;2.95;1.63;;;;;;;;;;5049026;28;20056;-77
2021/12/13 09:09:17;;;;;;;3.58;1.67;;;;;;;;;;5050165;28;20092;-78
2021/12/13 09:11:46;;;;;;;3.53;1.80;;;;;;;;;;5047557;28;20099;-79
2021/12/13 09:14:18;;;;;;;4.18;1.65;;;;;;;;;;5057322;28;20052;-78
2021/12/13 09:17:16;;;;;;;4.28;2.45;;;;;;;;;;5047139;28;20501;-78
2021/12/13 09:19:42;;;;;;;3.67;2.17;;;;;;;;;;5038793;28;20081;-77
2021/12/13 09:22:17;;;;;;;4.97;2.80;;;;;;;;;;5047103;28;20150;-78
2021/12/13 09:24:49;;;;;;;5.40;3.42;;;;;;;;;;5061004;28;20068;-77
2021/12/13 09:27:18;;;;;;;5.63;3.85;;;;;;;;;;5067465;28;20197;-78
2021/12/13 09:30:08;;;;;;;6.57;3.67;;;;;;;;;;5068084;28;20052;-78
2021/12/13 09:32:37;;;;;;;6.10;4.60;;;;;;;;;;5060530;28;20040;-78
2021/12/13 09:35:22;;;;;;;6.00;3.88;;;;;;;;;;5064220;28;20496;-78
2021/12/13 09:37:49;;;;;;;5.28;3.40;;;;;;;;;;5050142;28;20040;-78
2021/12/13 09:40:17;;;;;;;7.60;3.92;;;;;;;;;;5066410;28;20056;-78
2021/12/13 09:42:51;;;;;;;5.88;3.72;;;;;;;;;;5067179;28;20577;-78
2021/12/13 09:45:25;;;;;;;7.80;4.78;;;;;;;;;;5057110;28;20060;-79
2021/12/13 09:47:51;;;;;;;9.82;6.93;;;;;;;;;;5055152;28;20091;-77
2021/12/13 09:50:20;;;;;;;9.75;6.20;;;;;;;;;;5057576;28;20053;-78
2021/12/13 09:52:49;;;;;;;9.52;5.03;;;;;;;;;;5050376;28;20122;-78
2021/12/13 09:55:25;;;;;;;12.50;6.70;;;;;;;;;;5070029;28;20563;-78
2021/12/13 09:57:56;;;;;;;10.40;6.65;;;;;;;;;;5066380;28;20060;-78
2021/12/13 10:00:41;;;;;;;10.63;6.55;;;;;;;;;;5065946;28;20064;-79
2021/12/13 10:03:10;;;;;;;10.85;7.38;;;;;;;;;;5069666;28;21298;-79
2021/12/13 10:05:39;;;;;;;11.38;7.60;;;;;;;;;;5059972;28;20075;-79
2021/12/13 10:08:08;;;;;;;13.05;7.90;;;;;;;;;;5049271;28;20078;-80
2021/12/13 10:10:37;;;;;;;13.63;9.27;;;;;;;;;;5065270;28;20492;-80
2021/12/13 10:13:05;;;;;;;11.63;6.88;;;;;;;;;;5062963;28;20059;-80
2021/12/13 10:15:34;;;;;;;9.00;6.05;;;;;;;;;;5063971;28;20067;-78
2021/12/13 10:18:04;;;;;;;16.38;9.63;;;;;;;;;;5066751;28;20048;-78
2021/12/13 10:20:41;;;;;;;9.45;6.25;;;;;;;;;;5063981;28;20472;-79
2021/12/13 10:23:10;;;;;;;11.88;8.68;;;;;;;;;;5047790;28;22481;-78
2021/12/13 10:25:39;;;;;;;13.25;8.38;;;;;;;;;;5045823;28;20073;-78
2021/12/13 10:28:10;;;;;;;17.95;11.25;;;;;;;;;;5058000;28;20060;-80
2021/12/13 10:30:39;;;;;;;12.48;8.15;;;;;;;;;;5046410;28;20500;-78
2021/12/13 10:33:06;;;;;;;15.48;11.07;;;;;;;;;;5044153;28;20114;-79
2021/12/13 10:35:34;;;;;;;15.07;11.00;;;;;;;;;;5048111;28;20041;-78
2021/12/13 10:38:04;;;;;;;22.00;13.63;;;;;;;;;;5047283;28;20033;-79
2021/12/13 10:40:34;;;;;;;24.63;16.02;;;;;;;;;;5048205;28;20064;-79
2021/12/13 10:43:05;;;;;;;21.05;12.35;;;;;;;;;;5042989;28;21269;-79
2021/12/13 10:45:39;;;;;;;21.55;12.90;;;;;;;;;;5044742;28;20075;-78
2021/12/13 10:48:08;;;;;;;16.40;11.68;;;;;;;;;;5047680;28;20060;-79
2021/12/13 10:50:38;;;;;;;14.90;8.80;;;;;;;;;;5044299;28;20033;-79
2021/12/13 10:53:05;;;;;;;29.55;16.85;;;;;;;;;;5044467;28;20056;-79
2021/12/13 10:55:36;;;;;;;14.43;10.80;;;;;;;;;;5042838;28;20520;-78
2021/12/13 10:58:03;;;;;;;18.60;12.20;;;;;;;;;;5060745;28;20060;-79
2021/12/13 11:00:41;;;;;;;16.38;9.57;;;;;;;;;;5045839;28;20550;-79
2021/12/13 11:03:10;;;;;;;17.48;12.18;;;;;;;;;;5042846;28;20525;-79
2021/12/13 11:05:37;;;;;;;28.55;16.70;;;;;;;;;;5042619;28;20487;-78
2021/12/13 11:08:06;;;;;;;19.45;12.48;;;;;;;;;;5045765;28;20048;-78
2021/12/13 11:10:35;;;;;;;26.13;14.57;;;;;;;;;;5042239;28;20056;-79
2021/12/13 11:13:02;;;;;;;20.58;12.63;;;;;;;;;;5045405;28;20556;-79
2021/12/13 11:15:32;;;;;;;21.27;13.02;;;;;;;;;;5044571;28;20065;-79
2021/12/13 11:17:58;;;;;;;20.15;13.13;;;;;;;;;;5049576;28;21318;-78
2021/12/13 11:20:33;;;;;;;24.23;16.35;;;;;;;;;;5066474;28;20063;-78
2021/12/13 11:23:00;;;;;;;20.45;12.77;;;;;;;;;;5059299;28;21396;-78
2021/12/13 11:25:29;;;;;;;18.00;11.30;;;;;;;;;;5047688;28;20056;-76
2021/12/13 11:27:56;;;;;;;22.52;14.30;;;;;;;;;;5070784;28;20458;-77
2021/12/13 11:30:25;;;;;;;28.05;16.60;;;;;;;;;;5064196;28;20110;-78
2021/12/13 11:32:57;;;;;;;22.20;14.38;;;;;;;;;;5064131;28;20053;-78
2021/12/13 11:35:42;;;;;;;26.73;15.75;;;;;;;;;;5062890;28;20072;-78
2021/12/13 11:38:10;;;;;;;14.70;9.60;;;;;;;;;;5063025;28;20190;-77
2021/12/13 11:40:40;;;;;;;26.00;14.45;;;;;;;;;;5062852;28;20457;-77
2021/12/13 11:43:24;;;;;;;16.48;10.18;;;;;;;;;;5064625;28;20075;-78
2021/12/13 11:45:54;;;;;;;16.10;9.75;;;;;;;;;;5061736;28;20033;-77
2021/12/13 11:48:24;;;;;;;30.45;19.02;;;;;;;;;;5066483;28;20056;-79
2021/12/13 11:51:00;;;;;;;16.83;11.25;;;;;;;;;;5062717;28;20063;-77
2021/12/13 11:53:42;;;;;;;33.50;20.48;;;;;;;;;;5063125;28;20057;-80
2021/12/13 11:56:09;;;;;;;22.60;14.60;;;;;;;;;;5064419;28;20153;-80
2021/12/13 11:58:40;;;;;;;19.77;12.90;;;;;;;;;;5060936;28;20071;-81
2021/12/13 12:01:09;;;;;;;26.77;16.27;;;;;;;;;;5063571;28;20060;-81
2021/12/13 12:03:54;;;;;;;21.17;14.75;;;;;;;;;;5063941;28;20086;-81
2021/12/13 12:06:39;;;;;;;23.48;15.43;;;;;;;;;;5064063;28;20048;-82
2021/12/13 12:09:24;;;;;;;40.00;26.80;;;;;;;;;;5064408;28;22257;-80
2021/12/13 12:11:53;;;;;;;43.95;27.27;;;;;;;;;;5050690;28;20060;-79
2021/12/13 12:14:24;;;;;;;36.08;23.20;;;;;;;;;;5052764;28;20121;-81
2021/12/13 12:16:53;;;;;;;19.55;13.40;;;;;;;;;;5044460;28;20029;-81
2021/12/13 12:19:24;;;;;;;34.88;21.52;;;;;;;;;;5053103;28;20126;-81
2021/12/13 12:22:02;;;;;;;17.55;11.70;;;;;;;;;;5050139;28;20120;-80
2021/12/13 12:24:31;;;;;;;22.33;15.90;;;;;;;;;;5050676;28;20060;-80
2021/12/13 12:27:08;;;;;;;25.25;15.88;;;;;;;;;;5049476;28;20060;-80
2021/12/13 12:29:41;;;;;;;23.20;14.15;;;;;;;;;;5041650;28;20456;-80
2021/12/13 12:32:28;;;;;;;27.42;16.58;;;;;;;;;;5049915;28;20060;-81
2021/12/13 12:34:59;;;;;;;25.98;16.58;;;;;;;;;;5045558;28;20114;-80
2021/12/13 12:37:25;;;;;;;33.53;19.42;;;;;;;;;;5049328;28;20056;-81
2021/12/13 12:40:10;;;;;;;23.13;14.45;;;;;;;;;;5058280;28;20176;-81
2021/12/13 12:42:48;;;;;;;24.05;17.10;;;;;;;;;;5061110;28;20033;-80
2021/12/13 12:45:23;;;;;;;22.88;14.40;;;;;;;;;;5065481;28;20068;-80
2021/12/13 12:47:58;;;;;;;34.88;21.90;;;;;;;;;;5065896;28;20491;-83
2021/12/13 12:50:29;;;;;;;20.73;14.77;;;;;;;;;;5067948;28;20106;-82
2021/12/13 12:52:56;;;;;;;;;;;;;;;;;;5070541;28;20056;-80
2021/12/13 12:55:27;;;;;;;20.30;12.68;;;;;;;;;;5065384;28;20403;-81
2021/12/13 12:57:53;;;;;;;28.08;17.25;;;;;;;;;;5066237;28;20044;-81
2021/12/13 13:00:24;;;;;;;32.63;21.42;;;;;;;;;;5071581;28;20060;-81
2021/12/13 13:02:50;;;;;;;36.38;22.40;;;;;;;;;;5070509;28;20028;-80
2021/12/13 13:05:18;;;;;;;27.85;17.02;;;;;;;;;;5068333;28;20072;-80
2021/12/13 13:07:45;;;;;;;22.88;15.32;;;;;;;;;;5064807;28;20886;-80
2021/12/13 13:10:24;;;;;;;20.80;13.88;;;;;;;;;;5070777;28;20504;-81
2021/12/13 13:12:55;;;;;;;22.85;15.32;;;;;;;;;;5066064;28;20110;-82
2021/12/13 13:15:24;;;;;;;22.05;14.60;;;;;;;;;;5067136;28;20028;-82
2021/12/13 13:17:57;;;;;;;28.90;18.80;;;;;;;;;;5066734;28;20037;-80
2021/12/13 13:20:40;;;;;;;25.33;15.48;;;;;;;;;;5042631;28;20134;-81
2021/12/13 13:23:08;;;;;;;22.50;14.63;;;;;;;;;;5065532;28;20295;-80
2021/12/13 13:25:37;;;;;;;23.40;16.88;;;;;;;;;;5064454;28;20133;-79
2021/12/13 13:28:13;;;;;;;29.52;18.60;;;;;;;;;;5066654;28;20119;-81
2021/12/13 13:30:48;;;;;;;24.83;17.13;;;;;;;;;;5045612;28;20052;-81
2021/12/13 13:33:15;;;;;;;31.13;20.13;;;;;;;;;;5066869;28;20097;-81
2021/12/13 13:35:42;;;;;;;23.55;14.43;;;;;;;;;;5066340;28;20078;-80
2021/12/13 13:38:15;;;;;;;35.42;22.52;;;;;;;;;;5066581;28;20979;-82
2021/12/13 13:40:43;;;;;;;21.73;14.45;;;;;;;;;;5045772;28;20504;-82
2021/12/13 13:43:11;;;;;;;24.05;14.75;;;;;;;;;;5065602;28;20094;-81
2021/12/13 13:45:42;;;;;;;26.08;17.20;;;;;;;;;;5066353;28;20056;-80
2021/12/13 13:48:10;;;;;;;23.92;15.20;;;;;;;;;;5065240;28;20404;-82
2021/12/13 13:50:42;;;;;;;23.52;17.13;;;;;;;;;;5067090;28;20056;-82
2021/12/13 13:53:08;;;;;;;;;;;;;;;;;;5070909;28;20098;-82
2021/12/13 13:55:38;;;;;;;18.88;13.93;;;;;;;;;;5061916;28;19940;-81
2021/12/13 13:58:06;;;;;;;22.77;16.35;;;;;;;;;;5060341;28;20040;-82
2021/12/13 14:00:43;;;;;;;33.13;20.98;;;;;;;;;;5050333;28;20133;-80
2021/12/13 14:03:12;;;;;;;21.50;13.82;;;;;;;;;;5070235;28;20064;-81
2021/12/13 14:05:39;;;;;;;27.15;17.30;;;;;;;;;;5067509;28;20076;-81
2021/12/13 14:08:17;;;;;;;17.95;11.90;;;;;;;;;;5068191;28;20040;-81
2021/12/13 14:10:44;;;;;;;28.40;18.23;;;;;;;;;;5069364;28;20044;-81
2021/12/13 14:13:10;;;;;;;28.42;19.55;;;;;;;;;;5069830;28;20113;-82
2021/12/13 14:15:39;;;;;;;20.80;14.45;;;;;;;;;;5070300;28;20029;-81
2021/12/13 14:18:15;;;;;;;35.28;22.17;;;;;;;;;;5084870;28;20067;-82
2021/12/13 14:20:44;;;;;;;23.20;15.68;;;;;;;;;;5073537;28;20033;-81
2021/12/13 14:23:13;;;;;;;14.75;9.48;;;;;;;;;;5071332;28;20111;-82
2021/12/13 14:25:45;;;;;;;27.15;16.27;;;;;;;;;;5073484;28;20040;-82
2021/12/13 14:28:13;;;;;;;35.90;23.55;;;;;;;;;;5074743;28;20063;-82
2021/12/13 14:30:44;;;;;;;25.92;17.10;;;;;;;;;;5071927;28;20033;-82
2021/12/13 14:33:32;;;;;;;25.98;17.58;;;;;;;;;;5082191;28;20036;-80
2021/12/13 14:36:06;;;;;;;23.70;16.42;;;;;;;;;;5083663;28;21086;-81
2021/12/13 14:38:33;;;;;;;27.70;18.90;;;;;;;;;;5080048;28;20036;-79
2021/12/13 14:41:01;;;;;;;29.20;18.70;;;;;;;;;;5081344;28;20021;-81
2021/12/13 14:43:30;;;;;;;33.28;20.15;;;;;;;;;;5083431;28;20037;-81
2021/12/13 14:45:58;;;;;;;33.08;21.00;;;;;;;;;;5079343;28;20037;-82
2021/12/13 14:48:26;;;;;;;32.10;18.92;;;;;;;;;;5065930;28;20689;-82
2021/12/13 14:50:54;;;;;;;25.08;16.30;;;;;;;;;;5074305;28;20044;-82
2021/12/13 14:53:31;;;;;;;31.42;20.13;;;;;;;;;;5061637;28;20387;-81
2021/12/13 14:56:00;;;;;;;24.15;16.38;;;;;;;;;;5071259;28;20028;-82
2021/12/13 14:58:33;;;;;;;30.83;21.08;;;;;;;;;;5072557;28;20098;-81
2021/12/13 15:01:02;;;;;;;25.27;16.50;;;;;;;;;;5051549;28;20284;-83
2021/12/13 15:03:33;;;;;;;33.97;20.45;;;;;;;;;;5069938;28;20098;-81
2021/12/13 15:06:10;;;;;;;30.17;21.25;;;;;;;;;;5071344;28;20114;-82
2021/12/13 15:08:39;;;;;;;37.05;24.65;;;;;;;;;;5060022;28;20113;-80